EDDR/SCN METAR and TAF weather

Enter ICAO airport designator
Station Type Date Time Source
EDDR METAR 2018/12/13 15:20 UTC NOAA

EDDR 131520Z 06010KT 9999 SCT024 BKN028 M00/M05 Q1015 NOSIG


Station Type Date Time Source
EDDR Decoded METAR 2018/12/13 15:20 UTC NOAA

Saarbruecken / Ensheim, Germany (EDDR) 49-13N 007-07E 320M
Dec 13, 2018 - 10:20 AM EST / 2018.12.13 1520 UTC
Wind: from the ENE (060 degrees) at 12 MPH (10 KT):0
Visibility: greater than 7 mile(s):0
Sky conditions: mostly cloudy
Temperature: 32 F (0 C)
Windchill: 23 F (-5 C):1
Dew Point: 23 F (-5 C)
Relative Humidity: 69%
Pressure (altimeter): 29.97 in. Hg (1015 hPa)
ob: EDDR 131520Z 06010KT 9999 SCT024 BKN028 M00/M05 Q1015 NOSIG
cycle: 15

Station Type Date Time Source
EDDR TAF 2018/12/13 12:27 UTC NOAA

TAF EDDR 131100Z 1312/1412 06013KT 9999 BKN020
TEMPO 1312/1315 06015G25KT
BECMG 1315/1317 04008KT
TEMPO 1402/1410 BKN012


Example: see airport list